createdAt,value
2022-10-26T00:00:41.806Z,100.00
2022-10-26T00:03:08.137Z,100.00
2022-10-26T00:05:34.991Z,100.00
2022-10-26T00:08:01.965Z,100.00
2022-10-26T00:10:30.910Z,100.00
2022-10-26T00:12:58.275Z,100.00
2022-10-26T00:15:24.606Z,100.00
2022-10-26T00:17:51.413Z,100.00
2022-10-26T00:20:17.955Z,100.00
2022-10-26T00:22:44.279Z,100.00
2022-10-26T00:25:10.777Z,100.00
2022-10-26T00:27:37.210Z,100.00
2022-10-26T00:30:06.278Z,100.00
2022-10-26T00:32:32.860Z,100.00
2022-10-26T00:35:07.096Z,100.00
2022-10-26T00:37:43.710Z,100.00
2022-10-26T00:40:10.326Z,100.00
2022-10-26T00:42:36.964Z,100.00
2022-10-26T00:45:29.749Z,100.00
2022-10-26T00:48:03.132Z,100.00
2022-10-26T00:50:34.994Z,100.00
2022-10-26T00:53:03.504Z,100.00
2022-10-26T00:55:32.399Z,100.00
2022-10-26T00:57:59.265Z,100.00
2022-10-26T01:00:25.664Z,100.00
2022-10-26T01:02:54.251Z,100.00
2022-10-26T01:05:21.294Z,100.00
2022-10-26T01:07:48.040Z,100.00
2022-10-26T01:10:15.295Z,100.00
2022-10-26T01:12:42.143Z,100.00
2022-10-26T01:15:08.712Z,100.00
2022-10-26T01:17:35.077Z,100.00
2022-10-26T01:20:20.030Z,100.00
2022-10-26T01:23:03.287Z,100.00
2022-10-26T01:25:48.562Z,100.00
2022-10-26T01:28:25.816Z,100.00
2022-10-26T01:30:53.160Z,100.00
2022-10-26T01:33:23.065Z,100.00
2022-10-26T01:36:07.942Z,100.00
2022-10-26T01:38:37.333Z,100.00
2022-10-26T01:41:03.663Z,100.00
2022-10-26T01:43:33.705Z,100.00
2022-10-26T01:46:01.960Z,100.00
2022-10-26T01:48:29.437Z,100.00
2022-10-26T01:50:57.502Z,100.00
2022-10-26T01:53:25.835Z,100.00
2022-10-26T01:55:52.820Z,100.00
2022-10-26T01:58:28.220Z,100.00
2022-10-26T02:00:59.367Z,100.00
2022-10-26T02:03:32.628Z,100.00
2022-10-26T02:06:05.092Z,100.00
2022-10-26T02:08:57.546Z,100.00
2022-10-26T02:11:31.238Z,100.00
2022-10-26T02:14:06.943Z,100.00
2022-10-26T02:16:33.360Z,100.00
2022-10-26T02:19:05.399Z,100.00
2022-10-26T02:21:42.301Z,100.00
2022-10-26T02:24:11.648Z,100.00
2022-10-26T02:26:40.423Z,100.00
2022-10-26T02:29:08.937Z,100.00
2022-10-26T02:31:36.898Z,100.00
2022-10-26T02:34:06.266Z,100.00
2022-10-26T02:36:34.696Z,100.00
2022-10-26T02:39:03.311Z,100.00
2022-10-26T02:41:30.784Z,100.00
2022-10-26T02:44:00.526Z,100.00
2022-10-26T02:46:27.973Z,100.00
2022-10-26T02:48:54.998Z,100.00
2022-10-26T02:51:30.448Z,100.00
2022-10-26T02:54:12.592Z,100.00
2022-10-26T02:56:44.005Z,100.00
2022-10-26T02:59:11.390Z,100.00
2022-10-26T03:01:38.582Z,100.00
2022-10-26T03:04:05.327Z,100.00
2022-10-26T03:06:31.786Z,100.00
2022-10-26T03:08:58.218Z,100.00
2022-10-26T03:11:24.675Z,100.00
2022-10-26T03:13:51.071Z,100.00
2022-10-26T03:16:17.503Z,100.00
2022-10-26T03:18:44.019Z,100.00
2022-10-26T03:21:10.474Z,100.00
2022-10-26T03:23:36.899Z,100.00
2022-10-26T03:26:03.376Z,100.00
2022-10-26T03:28:30.032Z,100.00
2022-10-26T03:30:56.498Z,100.00
2022-10-26T03:33:25.638Z,100.00
2022-10-26T03:35:55.655Z,100.00
2022-10-26T03:38:22.324Z,100.00
2022-10-26T03:40:48.789Z,100.00
2022-10-26T03:43:15.204Z,100.00
2022-10-26T03:45:41.653Z,100.00
2022-10-26T03:48:08.075Z,100.00
2022-10-26T03:50:34.563Z,100.00
2022-10-26T03:53:00.977Z,100.00
2022-10-26T03:55:27.358Z,100.00
2022-10-26T03:57:53.841Z,100.00
2022-10-26T04:00:20.397Z,100.00
2022-10-26T04:02:53.530Z,100.00
2022-10-26T04:05:19.908Z,100.00
2022-10-26T04:07:52.396Z,100.00
2022-10-26T04:10:18.887Z,100.00
2022-10-26T04:12:45.285Z,100.00
2022-10-26T04:15:11.849Z,100.00
2022-10-26T04:17:38.490Z,100.00
2022-10-26T04:20:05.106Z,100.00
2022-10-26T04:22:31.524Z,100.00
2022-10-26T04:24:58.556Z,100.00
2022-10-26T04:27:25.246Z,100.00
2022-10-26T04:29:51.724Z,100.00
2022-10-26T04:32:18.190Z,100.00
2022-10-26T04:34:44.728Z,100.00
2022-10-26T04:37:11.212Z,100.00
2022-10-26T04:39:37.802Z,100.00
2022-10-26T04:42:04.274Z,100.00
2022-10-26T04:44:30.825Z,100.00
2022-10-26T04:46:57.266Z,100.00
2022-10-26T04:49:23.642Z,100.00
2022-10-26T04:51:50.120Z,100.00
2022-10-26T04:54:16.506Z,100.00
2022-10-26T04:56:43.088Z,100.00
2022-10-26T04:59:09.718Z,100.00
2022-10-26T05:01:36.183Z,100.00
2022-10-26T05:04:02.678Z,100.00
2022-10-26T05:06:30.245Z,100.00
2022-10-26T05:08:56.716Z,100.00
2022-10-26T05:11:23.260Z,100.00
2022-10-26T05:13:49.765Z,100.00
2022-10-26T05:16:18.934Z,100.00
2022-10-26T05:18:47.651Z,100.00
2022-10-26T05:21:19.317Z,100.00
2022-10-26T05:23:55.672Z,100.00
2022-10-26T05:26:22.880Z,100.00
2022-10-26T05:28:49.639Z,100.00
2022-10-26T05:31:17.270Z,100.00
2022-10-26T05:33:43.646Z,100.00
2022-10-26T05:36:10.182Z,100.00
2022-10-26T05:38:36.639Z,100.00
2022-10-26T05:41:03.438Z,100.00
2022-10-26T05:43:30.466Z,100.00
2022-10-26T05:45:56.876Z,100.00
2022-10-26T05:48:23.286Z,100.00
2022-10-26T05:50:49.744Z,100.00
2022-10-26T05:53:16.176Z,100.00
2022-10-26T05:55:43.169Z,100.00
2022-10-26T05:58:10.604Z,100.00
2022-10-26T06:00:41.914Z,100.00
2022-10-26T06:03:17.500Z,100.00
2022-10-26T06:06:01.652Z,100.00
2022-10-26T06:08:30.583Z,100.00
2022-10-26T06:10:59.484Z,100.00
2022-10-26T06:13:26.066Z,100.00
2022-10-26T06:16:08.136Z,100.00
2022-10-26T06:19:03.729Z,100.00
2022-10-26T06:21:33.113Z,100.00
2022-10-26T06:24:05.604Z,100.00
2022-10-26T06:26:47.346Z,100.00
2022-10-26T06:29:22.537Z,100.00
2022-10-26T06:31:48.957Z,100.00
2022-10-26T06:34:19.335Z,100.00
2022-10-26T06:36:47.125Z,100.00
2022-10-26T06:39:14.702Z,100.00
2022-10-26T06:41:41.262Z,100.00
2022-10-26T06:44:12.321Z,100.00
2022-10-26T06:46:41.724Z,100.00
2022-10-26T06:49:18.855Z,100.00
2022-10-26T06:52:05.506Z,100.00
2022-10-26T06:54:46.971Z,100.00
2022-10-26T06:57:14.781Z,100.00
2022-10-26T06:59:49.391Z,100.00
2022-10-26T07:02:15.968Z,100.00
2022-10-26T07:04:42.874Z,100.00
2022-10-26T07:07:11.149Z,100.00
2022-10-26T07:09:37.554Z,100.00
2022-10-26T07:12:04.057Z,100.00
2022-10-26T07:14:30.459Z,100.00
2022-10-26T07:16:57.116Z,100.00
2022-10-26T07:19:23.845Z,100.00
2022-10-26T07:21:50.256Z,100.00
2022-10-26T07:24:16.631Z,100.00
2022-10-26T07:26:43.037Z,100.00
2022-10-26T07:29:09.772Z,100.00
2022-10-26T07:31:36.197Z,100.00
2022-10-26T07:34:02.957Z,100.00
2022-10-26T07:36:29.419Z,100.00
2022-10-26T07:38:55.825Z,100.00
2022-10-26T07:41:22.229Z,100.00
2022-10-26T07:43:50.818Z,100.00
2022-10-26T07:46:18.049Z,100.00
2022-10-26T07:51:16.256Z,100.00
2022-10-26T07:53:42.606Z,100.00
2022-10-26T07:56:10.148Z,100.00
2022-10-26T07:58:36.610Z,100.00
2022-10-26T08:01:07.390Z,100.00
2022-10-26T08:03:33.857Z,100.00
2022-10-26T08:06:00.738Z,100.00
2022-10-26T08:08:27.646Z,100.00
2022-10-26T08:10:54.221Z,100.00
2022-10-26T08:13:20.816Z,100.00
2022-10-26T08:15:47.826Z,100.00
2022-10-26T08:18:14.205Z,100.00
2022-10-26T08:20:40.613Z,100.00
2022-10-26T08:23:08.600Z,100.00
2022-10-26T08:25:35.016Z,100.00
2022-10-26T08:28:04.523Z,100.00
2022-10-26T08:30:31.965Z,100.00
2022-10-26T08:33:02.517Z,100.00
2022-10-26T08:35:29.356Z,100.00
2022-10-26T08:37:55.672Z,100.00
2022-10-26T08:40:24.151Z,100.00
2022-10-26T08:42:53.058Z,100.00
2022-10-26T08:45:27.562Z,100.00
2022-10-26T08:47:58.315Z,100.00
2022-10-26T08:50:27.452Z,100.00
2022-10-26T08:53:02.228Z,100.00
2022-10-26T08:55:32.033Z,100.00
2022-10-26T08:58:01.203Z,100.00
2022-10-26T09:00:29.428Z,100.00
2022-10-26T09:02:55.975Z,100.00
2022-10-26T09:05:23.716Z,100.00
2022-10-26T09:07:57.114Z,100.00
2022-10-26T09:10:38.029Z,100.00
2022-10-26T09:13:27.773Z,100.00
2022-10-26T09:16:00.082Z,100.00
2022-10-26T09:18:32.381Z,100.00
2022-10-26T09:21:01.795Z,100.00
2022-10-26T09:23:40.138Z,100.00
2022-10-26T09:26:11.367Z,100.00
2022-10-26T09:28:38.439Z,100.00
2022-10-26T09:31:05.099Z,100.00
2022-10-26T09:33:34.734Z,100.00
2022-10-26T09:36:07.354Z,100.00
2022-10-26T09:38:33.772Z,100.00
2022-10-26T09:41:00.251Z,100.00
2022-10-26T09:43:30.023Z,100.00
2022-10-26T09:45:56.349Z,100.00
2022-10-26T09:48:27.542Z,100.00
2022-10-26T09:50:54.054Z,100.00
2022-10-26T09:53:20.488Z,100.00
2022-10-26T09:55:48.410Z,99.84
2022-10-26T09:58:17.403Z,99.45
2022-10-26T10:00:44.985Z,100.00
2022-10-26T10:03:24.782Z,100.00
2022-10-26T10:05:52.825Z,99.97
2022-10-26T10:08:22.686Z,96.81
2022-10-26T10:10:59.890Z,95.59
2022-10-26T10:13:30.638Z,93.24
2022-10-26T10:16:06.978Z,93.72
2022-10-26T10:18:34.124Z,94.24
2022-10-26T10:21:00.786Z,91.99
2022-10-26T10:23:29.383Z,91.72
2022-10-26T10:26:00.275Z,92.17
2022-10-26T10:28:27.277Z,91.88
2022-10-26T10:30:59.550Z,92.77
2022-10-26T10:33:33.696Z,92.56
2022-10-26T10:36:00.965Z,91.40
2022-10-26T10:38:27.478Z,89.75
2022-10-26T10:40:56.840Z,89.24
2022-10-26T10:43:23.900Z,89.03
2022-10-26T10:45:53.731Z,88.62
2022-10-26T10:48:24.871Z,88.33
2022-10-26T10:50:51.242Z,89.20
2022-10-26T10:53:32.924Z,89.69
2022-10-26T10:56:04.380Z,88.46
2022-10-26T10:58:51.287Z,87.86
2022-10-26T11:01:21.198Z,87.52
2022-10-26T11:03:47.656Z,88.19
2022-10-26T11:06:17.406Z,84.82
2022-10-26T11:08:52.872Z,84.32
2022-10-26T11:11:32.183Z,82.27
2022-10-26T11:14:17.206Z,84.13
2022-10-26T11:16:46.459Z,83.13
2022-10-26T11:19:13.251Z,82.07
2022-10-26T11:21:39.692Z,81.30
2022-10-26T11:24:20.399Z,81.92
2022-10-26T11:26:59.107Z,82.20
2022-10-26T11:29:48.402Z,82.11
2022-10-26T11:32:21.292Z,80.51
2022-10-26T11:35:04.854Z,81.31
2022-10-26T11:40:25.650Z,80.47
2022-10-26T11:43:05.929Z,80.03
2022-10-26T11:45:34.854Z,79.97
2022-10-26T11:48:07.191Z,79.81
2022-10-26T11:50:35.661Z,79.76
2022-10-26T11:53:22.422Z,79.14
2022-10-26T11:55:51.213Z,80.24
2022-10-26T11:58:17.774Z,79.16
2022-10-26T12:00:53.217Z,74.96
2022-10-26T12:03:24.667Z,76.00
2022-10-26T12:05:51.915Z,76.47
2022-10-26T12:08:27.845Z,75.67
2022-10-26T12:11:20.542Z,74.95
2022-10-26T12:13:53.179Z,74.16
2022-10-26T12:16:21.367Z,74.27
2022-10-26T12:18:56.409Z,74.95
2022-10-26T12:21:30.351Z,75.17
2022-10-26T12:24:01.011Z,75.43
2022-10-26T12:26:28.034Z,76.57
2022-10-26T12:29:03.443Z,76.36
2022-10-26T12:31:33.424Z,71.54
2022-10-26T12:34:00.530Z,67.35
2022-10-26T12:36:45.510Z,67.02
2022-10-26T12:39:32.190Z,68.89
2022-10-26T12:42:09.558Z,66.31
2022-10-26T12:44:40.417Z,66.43
2022-10-26T12:47:07.811Z,70.11
2022-10-26T12:49:52.943Z,71.66
2022-10-26T12:52:20.812Z,72.97
2022-10-26T12:54:55.803Z,74.04
2022-10-26T12:57:38.538Z,74.13
2022-10-26T13:00:06.180Z,70.34
2022-10-26T13:02:32.571Z,67.58
2022-10-26T13:05:17.831Z,68.05
2022-10-26T13:07:44.310Z,68.92
2022-10-26T13:10:13.883Z,68.80
2022-10-26T13:12:43.028Z,66.90
2022-10-26T13:15:23.337Z,68.45
2022-10-26T13:17:57.724Z,68.26
2022-10-26T13:20:24.157Z,68.35
2022-10-26T13:22:51.056Z,64.94
2022-10-26T13:25:25.889Z,66.38
2022-10-26T13:28:06.635Z,66.86
2022-10-26T13:30:33.024Z,66.89
2022-10-26T13:33:00.555Z,65.38
2022-10-26T13:35:27.476Z,67.42
2022-10-26T13:37:55.136Z,67.74
2022-10-26T13:40:24.015Z,68.65
2022-10-26T13:42:53.745Z,69.22
2022-10-26T13:45:28.761Z,69.90
2022-10-26T13:48:06.105Z,69.28
2022-10-26T13:50:45.597Z,70.34
2022-10-26T13:53:24.170Z,70.44
2022-10-26T13:55:53.086Z,71.39
2022-10-26T13:58:32.544Z,70.15
2022-10-26T14:01:11.846Z,70.92
2022-10-26T14:03:38.697Z,69.83
2022-10-26T14:06:17.256Z,69.64
2022-10-26T14:08:47.405Z,70.80
2022-10-26T14:11:15.582Z,69.37
2022-10-26T14:13:42.898Z,67.21
2022-10-26T14:16:12.919Z,66.98
2022-10-26T14:18:42.301Z,66.84
2022-10-26T14:21:13.959Z,68.21
2022-10-26T14:23:48.978Z,69.39
2022-10-26T14:26:37.935Z,69.45
2022-10-26T14:29:04.512Z,70.58
2022-10-26T14:31:32.511Z,71.00
2022-10-26T14:34:00.245Z,71.09
2022-10-26T14:36:39.957Z,72.07
2022-10-26T14:39:09.474Z,73.58
2022-10-26T14:41:36.353Z,75.53
2022-10-26T14:44:03.004Z,76.26
2022-10-26T14:46:35.167Z,77.02
2022-10-26T14:49:02.552Z,78.54
2022-10-26T14:51:37.899Z,79.08
2022-10-26T14:54:04.474Z,79.65
2022-10-26T14:56:38.422Z,80.33
2022-10-26T14:59:25.217Z,80.50
2022-10-26T15:01:51.700Z,80.93
2022-10-26T15:04:41.451Z,81.83
2022-10-26T15:07:18.117Z,81.70
2022-10-26T15:09:47.408Z,82.20
2022-10-26T15:12:28.549Z,82.40
2022-10-26T15:14:55.530Z,82.65
2022-10-26T15:17:24.538Z,83.08
2022-10-26T15:19:51.971Z,83.36
2022-10-26T15:22:23.160Z,83.50
2022-10-26T15:24:54.553Z,84.06
2022-10-26T15:27:22.191Z,84.58
2022-10-26T15:29:49.872Z,84.68
2022-10-26T15:32:34.501Z,85.48
2022-10-26T15:35:19.185Z,85.96
2022-10-26T15:37:46.282Z,86.44
2022-10-26T15:40:15.840Z,87.13
2022-10-26T15:42:44.771Z,87.12
2022-10-26T15:45:16.637Z,87.31
2022-10-26T15:47:43.284Z,87.18
2022-10-26T15:50:16.318Z,87.72
2022-10-26T15:52:45.375Z,88.11
2022-10-26T15:55:17.954Z,88.50
2022-10-26T15:57:44.627Z,88.82
2022-10-26T16:00:14.771Z,88.70
2022-10-26T16:02:41.899Z,88.91
2022-10-26T16:05:09.028Z,89.31
2022-10-26T16:07:35.379Z,89.53
2022-10-26T16:10:01.865Z,89.54
2022-10-26T16:12:28.275Z,89.58
2022-10-26T16:15:05.042Z,89.69
2022-10-26T16:17:33.245Z,90.21
2022-10-26T16:20:02.324Z,90.52
2022-10-26T16:22:30.438Z,90.57
2022-10-26T16:24:58.238Z,90.44
2022-10-26T16:27:24.621Z,90.65
2022-10-26T16:29:51.063Z,90.83
2022-10-26T16:32:17.439Z,90.67
2022-10-26T16:34:43.815Z,91.09
2022-10-26T16:37:10.207Z,91.90
2022-10-26T16:39:36.582Z,91.98
2022-10-26T16:42:03.026Z,92.24
2022-10-26T16:44:29.390Z,92.27
2022-10-26T16:46:55.787Z,92.00
2022-10-26T16:49:22.138Z,92.19
2022-10-26T16:51:48.499Z,92.28
2022-10-26T16:54:15.048Z,93.02
2022-10-26T16:56:42.454Z,93.28
2022-10-26T16:59:09.299Z,92.93
2022-10-26T17:01:35.952Z,93.15
2022-10-26T17:06:35.157Z,93.40
2022-10-26T17:09:01.635Z,93.39
2022-10-26T17:11:28.039Z,93.47
2022-10-26T17:13:54.975Z,93.43
2022-10-26T17:16:22.220Z,93.61
2022-10-26T17:18:49.025Z,93.71
2022-10-26T17:21:16.248Z,93.92
2022-10-26T17:23:42.563Z,94.33
2022-10-26T17:26:10.294Z,94.35
2022-10-26T17:28:37.103Z,94.33
2022-10-26T17:31:07.908Z,94.60
2022-10-26T17:33:35.036Z,94.43
2022-10-26T17:36:02.196Z,95.02
2022-10-26T17:38:32.876Z,95.11
2022-10-26T17:41:02.948Z,95.56
2022-10-26T17:43:29.847Z,95.70
2022-10-26T17:46:00.007Z,95.84
2022-10-26T17:48:27.465Z,95.94
2022-10-26T17:50:54.054Z,95.78
2022-10-26T17:53:20.729Z,95.80
2022-10-26T17:55:47.128Z,96.52
2022-10-26T17:58:13.500Z,96.43
2022-10-26T18:00:40.328Z,96.47
2022-10-26T18:03:08.086Z,96.94
2022-10-26T18:05:34.641Z,97.45
2022-10-26T18:08:00.974Z,97.19
2022-10-26T18:10:37.486Z,97.23
2022-10-26T18:13:04.500Z,97.17
2022-10-26T18:15:30.864Z,97.30
2022-10-26T18:17:58.578Z,97.40
2022-10-26T18:20:27.075Z,97.65
2022-10-26T18:22:57.011Z,97.65
2022-10-26T18:25:24.172Z,97.56
2022-10-26T18:27:50.675Z,97.68
2022-10-26T18:30:17.074Z,98.42
2022-10-26T18:32:43.624Z,98.04
2022-10-26T18:35:10.280Z,98.15
2022-10-26T18:37:36.608Z,98.20
2022-10-26T18:40:03.890Z,98.49
2022-10-26T18:42:30.258Z,99.19
2022-10-26T18:45:00.825Z,99.44
2022-10-26T18:47:28.480Z,99.40
2022-10-26T18:49:54.854Z,99.42
2022-10-26T18:52:23.802Z,99.59
2022-10-26T18:54:50.680Z,99.39
2022-10-26T18:57:18.755Z,99.87
2022-10-26T18:59:45.139Z,99.83
2022-10-26T19:02:13.932Z,99.96
2022-10-26T19:04:40.307Z,100.00
2022-10-26T19:07:06.683Z,100.00
2022-10-26T19:09:33.113Z,100.00
2022-10-26T19:12:01.474Z,100.00
2022-10-26T19:14:32.464Z,100.00
2022-10-26T19:16:58.841Z,100.00
2022-10-26T19:19:25.396Z,100.00
2022-10-26T19:21:51.851Z,100.00
2022-10-26T19:24:19.704Z,100.00
2022-10-26T19:26:46.766Z,100.00
2022-10-26T19:29:15.172Z,100.00
2022-10-26T19:31:42.274Z,100.00
2022-10-26T19:34:10.349Z,100.00
2022-10-26T19:36:36.771Z,100.00
2022-10-26T19:39:03.231Z,100.00
2022-10-26T19:41:31.267Z,100.00
2022-10-26T19:46:25.290Z,100.00
2022-10-26T19:48:55.323Z,100.00
2022-10-26T19:51:21.795Z,100.00
2022-10-26T19:53:48.502Z,100.00
2022-10-26T19:56:15.347Z,100.00
2022-10-26T19:58:42.823Z,100.00
2022-10-26T20:01:10.050Z,100.00
2022-10-26T20:03:36.832Z,100.00
2022-10-26T20:06:14.287Z,100.00
2022-10-26T20:08:41.433Z,100.00
2022-10-26T20:11:10.288Z,100.00
2022-10-26T20:13:40.447Z,100.00
2022-10-26T20:16:07.324Z,100.00
2022-10-26T20:18:34.070Z,100.00
2022-10-26T20:21:00.597Z,100.00
2022-10-26T20:23:27.154Z,100.00
2022-10-26T20:25:54.673Z,100.00
2022-10-26T20:28:21.395Z,100.00
2022-10-26T20:30:48.423Z,100.00
2022-10-26T20:33:14.828Z,100.00
2022-10-26T20:35:41.274Z,100.00
2022-10-26T20:38:13.487Z,100.00
2022-10-26T20:40:40.072Z,100.00
2022-10-26T20:43:06.644Z,100.00
2022-10-26T20:45:33.677Z,100.00
2022-10-26T20:48:00.678Z,100.00
2022-10-26T20:50:28.468Z,100.00
2022-10-26T20:53:03.010Z,100.00
2022-10-26T20:55:29.625Z,100.00
2022-10-26T20:57:58.663Z,100.00
2022-10-26T21:00:25.414Z,100.00
2022-10-26T21:02:51.976Z,100.00
2022-10-26T21:05:21.011Z,100.00
2022-10-26T21:07:47.470Z,100.00
2022-10-26T21:10:14.049Z,100.00
2022-10-26T21:12:41.110Z,100.00
2022-10-26T21:15:07.836Z,100.00
2022-10-26T21:17:34.515Z,100.00
2022-10-26T21:20:01.019Z,100.00
2022-10-26T21:22:27.414Z,100.00
2022-10-26T21:24:53.845Z,100.00
2022-10-26T21:27:20.320Z,100.00
2022-10-26T21:29:46.739Z,100.00
2022-10-26T21:32:13.395Z,100.00
2022-10-26T21:34:39.827Z,100.00
2022-10-26T21:37:06.283Z,100.00
2022-10-26T21:39:32.714Z,100.00
2022-10-26T21:41:59.169Z,100.00
2022-10-26T21:44:40.392Z,100.00
2022-10-26T21:47:07.952Z,100.00
2022-10-26T21:49:34.411Z,100.00
2022-10-26T21:52:00.917Z,100.00
2022-10-26T21:54:27.359Z,100.00
2022-10-26T21:56:53.762Z,100.00
2022-10-26T21:59:20.210Z,100.00
2022-10-26T22:01:46.720Z,100.00
2022-10-26T22:04:13.259Z,100.00
2022-10-26T22:06:39.641Z,100.00
2022-10-26T22:09:06.156Z,100.00
2022-10-26T22:11:33.794Z,100.00
2022-10-26T22:14:00.285Z,100.00
2022-10-26T22:16:28.042Z,100.00
2022-10-26T22:18:55.769Z,100.00
2022-10-26T22:21:24.570Z,100.00
2022-10-26T22:23:51.029Z,100.00
2022-10-26T22:26:18.739Z,100.00
2022-10-26T22:28:45.824Z,100.00
2022-10-26T22:31:13.983Z,100.00
2022-10-26T22:33:41.093Z,100.00
2022-10-26T22:36:08.882Z,100.00
2022-10-26T22:38:35.466Z,100.00
2022-10-26T22:41:01.931Z,100.00
2022-10-26T22:43:28.941Z,100.00
2022-10-26T22:46:18.704Z,100.00
2022-10-26T22:48:47.816Z,100.00
2022-10-26T22:51:15.634Z,100.00
2022-10-26T22:53:42.375Z,100.00
2022-10-26T22:56:09.798Z,100.00
2022-10-26T22:58:37.158Z,100.00
2022-10-26T23:01:04.806Z,100.00
2022-10-26T23:03:31.266Z,100.00
2022-10-26T23:05:58.070Z,100.00
2022-10-26T23:08:24.634Z,100.00
2022-10-26T23:10:51.103Z,100.00
2022-10-26T23:13:17.737Z,100.00
2022-10-26T23:15:44.167Z,100.00
2022-10-26T23:18:11.039Z,100.00
2022-10-26T23:20:37.408Z,100.00
2022-10-26T23:23:03.825Z,100.00
2022-10-26T23:25:30.273Z,100.00
2022-10-26T23:27:56.710Z,100.00
2022-10-26T23:30:23.095Z,100.00
2022-10-26T23:32:49.902Z,100.00
2022-10-26T23:35:16.598Z,100.00
2022-10-26T23:37:43.019Z,100.00
2022-10-26T23:40:09.912Z,100.00
2022-10-26T23:42:36.318Z,100.00
2022-10-26T23:45:02.738Z,100.00
2022-10-26T23:47:29.156Z,100.00
2022-10-26T23:49:55.545Z,100.00
2022-10-26T23:52:22.002Z,100.00
2022-10-26T23:57:15.736Z,100.00
2022-10-26T23:59:42.153Z,100.00
